Terminal Aerodrome Forecast
Issued by NWS

Home | Current Version | Previous Version | Text Only | Print | Product List | Glossary On
Versions: 1 2 3 4 5 6 7 8 9 10 11 12 13 14 15 16
000
FTUS43 KTOP 231700
TAFMHK
TAF
KMHK 231720Z 2318/2418 34010KT 3SM -SHRA BR SCT007 OVC020
     FM232100 32019G21KT 3SM -RA BR OVC020
     FM240500 31015G22KT P6SM SCT035=

USA.gov is the U.S. government's official web portal to all federal, state and local government web resources and services.